createdAt,value
2022-08-05T00:02:22.825Z,23.36
2022-08-05T00:04:55.060Z,23.35
2022-08-05T00:07:58.617Z,23.33
2022-08-05T00:10:12.140Z,23.30
2022-08-05T00:12:56.606Z,23.28
2022-08-05T00:15:56.099Z,23.26
2022-08-05T00:18:21.296Z,23.25
2022-08-05T00:20:49.999Z,23.23
2022-08-05T00:23:44.199Z,23.21
2022-08-05T00:26:07.211Z,23.17
2022-08-05T00:28:35.942Z,23.11
2022-08-05T00:31:04.737Z,23.09
2022-08-05T00:34:53.694Z,23.05
2022-08-05T00:37:10.377Z,23.00
2022-08-05T00:39:13.720Z,22.94
2022-08-05T00:41:55.278Z,22.89
2022-08-05T00:44:30.537Z,22.85
2022-08-05T00:47:02.165Z,22.82
2022-08-05T00:49:32.554Z,22.80
2022-08-05T00:52:12.134Z,22.76
2022-08-05T00:54:40.162Z,22.72
2022-08-05T00:57:12.283Z,22.68
2022-08-05T00:59:44.518Z,22.65
2022-08-05T01:02:12.471Z,22.62
2022-08-05T01:04:44.439Z,22.58
2022-08-05T01:07:31.759Z,22.54
2022-08-05T01:10:00.539Z,22.48
2022-08-05T01:12:29.695Z,22.44
2022-08-05T01:15:05.331Z,22.40
2022-08-05T01:17:43.863Z,22.37
2022-08-05T01:20:24.678Z,22.34
2022-08-05T01:23:14.430Z,22.30
2022-08-05T01:26:00.454Z,22.27
2022-08-05T01:28:33.287Z,22.22
2022-08-05T01:31:09.129Z,22.17
2022-08-05T01:33:43.359Z,22.11
2022-08-05T01:36:18.728Z,22.07
2022-08-05T01:38:49.752Z,22.05
2022-08-05T01:41:25.787Z,22.03
2022-08-05T01:43:54.816Z,21.99
2022-08-05T01:46:41.942Z,21.96
2022-08-05T01:49:23.594Z,21.93
2022-08-05T01:51:56.736Z,21.89
2022-08-05T01:54:31.275Z,21.87
2022-08-05T01:58:11.160Z,21.83
2022-08-05T01:59:53.660Z,21.80
2022-08-05T02:02:28.455Z,21.76
2022-08-05T02:05:00.782Z,21.74
2022-08-05T02:07:30.235Z,21.71
2022-08-05T02:09:58.882Z,21.68
2022-08-05T02:12:43.274Z,21.64
2022-08-05T02:15:23.383Z,21.61
2022-08-05T02:18:28.535Z,21.57
2022-08-05T02:20:47.261Z,21.53
2022-08-05T02:23:17.153Z,21.50
2022-08-05T02:25:49.698Z,21.48
2022-08-05T02:28:29.104Z,21.45
2022-08-05T02:31:02.098Z,21.42
2022-08-05T02:33:35.916Z,21.41
2022-08-05T02:36:09.979Z,21.38
2022-08-05T02:38:45.038Z,21.37
2022-08-05T02:41:23.406Z,21.35
2022-08-05T02:44:06.054Z,21.32
2022-08-05T02:46:53.218Z,21.28
2022-08-05T02:49:35.868Z,21.24
2022-08-05T02:52:09.066Z,21.23
2022-08-05T02:54:41.629Z,21.20
2022-08-05T02:58:11.320Z,21.18
2022-08-05T03:00:04.157Z,21.14
2022-08-05T03:02:36.371Z,21.12
2022-08-05T03:05:07.370Z,21.07
2022-08-05T03:08:01.183Z,21.04
2022-08-05T03:10:25.277Z,21.00
2022-08-05T03:12:55.101Z,20.97
2022-08-05T03:15:24.444Z,20.94
2022-08-05T03:17:55.516Z,20.91
2022-08-05T03:20:24.472Z,20.88
2022-08-05T03:22:53.070Z,20.84
2022-08-05T03:26:03.718Z,20.81
2022-08-05T03:28:14.488Z,20.79
2022-08-05T03:30:48.109Z,20.77
2022-08-05T03:33:19.646Z,20.74
2022-08-05T03:35:48.479Z,20.72
2022-08-05T03:38:17.981Z,20.71
2022-08-05T03:41:08.152Z,20.69
2022-08-05T03:44:08.930Z,20.66
2022-08-05T03:46:29.577Z,20.63
2022-08-05T03:48:59.624Z,20.61
2022-08-05T03:52:37.117Z,20.60
2022-08-05T03:55:54.143Z,20.59
2022-08-05T03:57:18.564Z,20.60
2022-08-05T03:59:54.529Z,20.59
2022-08-05T04:02:37.536Z,20.61
2022-08-05T04:05:10.254Z,20.62
2022-08-05T04:07:53.073Z,20.63
2022-08-05T04:10:32.070Z,20.64
2022-08-05T04:13:07.717Z,20.63
2022-08-05T04:15:36.450Z,20.63
2022-08-05T04:18:06.762Z,20.65
2022-08-05T04:20:36.125Z,20.66
2022-08-05T04:23:04.303Z,20.67
2022-08-05T04:25:57.829Z,20.69
2022-08-05T04:28:21.167Z,20.76
2022-08-05T04:31:01.155Z,20.82
2022-08-05T04:33:54.510Z,20.85
2022-08-05T04:36:45.295Z,20.89
2022-08-05T04:39:07.637Z,20.90
2022-08-05T04:41:37.765Z,20.91
2022-08-05T04:44:09.274Z,20.95
2022-08-05T04:46:38.874Z,20.99
2022-08-05T04:49:12.391Z,21.02
2022-08-05T04:51:44.132Z,21.08
2022-08-05T04:54:12.005Z,21.11
2022-08-05T04:56:40.305Z,21.16
2022-08-05T04:59:21.696Z,21.20
2022-08-05T05:02:07.230Z,21.28
2022-08-05T05:04:43.968Z,21.40
2022-08-05T05:07:17.263Z,21.48
2022-08-05T05:09:45.829Z,21.56
2022-08-05T05:12:13.551Z,21.62
2022-08-05T05:14:50.853Z,21.67
2022-08-05T05:17:23.812Z,21.72
2022-08-05T05:19:56.558Z,21.78
2022-08-05T05:22:26.356Z,21.82
2022-08-05T05:24:58.577Z,21.85
2022-08-05T05:27:44.166Z,21.89
2022-08-05T05:30:29.497Z,21.94
2022-08-05T05:33:01.275Z,22.00
2022-08-05T05:35:37.817Z,22.05
2022-08-05T05:38:09.481Z,22.13
2022-08-05T05:40:49.837Z,22.19
2022-08-05T05:43:57.193Z,22.26
2022-08-05T05:46:17.744Z,22.33
2022-08-05T05:48:48.024Z,22.40
2022-08-05T05:51:21.478Z,22.50
2022-08-05T05:53:58.234Z,22.63
2022-08-05T05:56:37.038Z,22.79
2022-08-05T05:59:07.012Z,22.97
2022-08-05T06:01:39.796Z,23.03
2022-08-05T06:04:12.754Z,23.10
2022-08-05T06:06:43.318Z,23.17
2022-08-05T06:09:16.991Z,23.27
2022-08-05T06:12:02.451Z,23.37
2022-08-05T06:14:33.426Z,23.46
2022-08-05T06:17:22.372Z,23.54
2022-08-05T06:19:56.688Z,23.62
2022-08-05T06:22:33.512Z,23.69
2022-08-05T06:25:25.028Z,23.78
2022-08-05T06:28:09.029Z,23.87
2022-08-05T06:34:06.836Z,24.03
2022-08-05T06:36:25.831Z,24.13
2022-08-05T06:38:55.116Z,24.20
2022-08-05T06:41:24.604Z,24.23
2022-08-05T06:44:00.158Z,24.27
2022-08-05T06:46:51.035Z,24.32
2022-08-05T06:49:59.818Z,24.33
2022-08-05T06:52:36.746Z,24.41
2022-08-05T06:55:09.533Z,24.50
2022-08-05T06:58:02.964Z,24.59
2022-08-05T07:00:26.700Z,24.71
2022-08-05T07:02:57.307Z,24.80
2022-08-05T07:05:37.267Z,24.88
2022-08-05T07:08:06.984Z,24.98
2022-08-05T07:10:39.735Z,25.07
2022-08-05T07:13:57.932Z,25.16
2022-08-05T07:17:58.199Z,25.25
2022-08-05T07:22:22.134Z,25.44
2022-08-05T07:24:57.882Z,25.51
2022-08-05T07:27:27.386Z,25.57
2022-08-05T07:30:23.946Z,25.63
2022-08-05T07:32:45.082Z,25.68
2022-08-05T07:35:55.759Z,25.72
2022-08-05T07:38:12.256Z,25.78
2022-08-05T07:40:44.487Z,25.86
2022-08-05T07:43:20.168Z,25.93
2022-08-05T07:45:57.974Z,26.01
2022-08-05T07:49:01.678Z,26.11
2022-08-05T07:51:23.731Z,26.24
2022-08-05T07:54:02.684Z,26.36
2022-08-05T07:57:02.420Z,26.42
2022-08-05T07:59:23.282Z,26.51
2022-08-05T08:02:06.995Z,26.59
2022-08-05T08:04:43.043Z,26.65
2022-08-05T08:07:13.319Z,26.72
2022-08-05T08:09:41.168Z,26.81
2022-08-05T08:12:27.521Z,26.91
2022-08-05T08:14:57.514Z,27.00
2022-08-05T08:17:30.503Z,27.06
2022-08-05T08:20:21.653Z,27.14
2022-08-05T08:22:52.067Z,27.22
2022-08-05T08:25:26.449Z,27.28
2022-08-05T08:27:55.105Z,27.35
2022-08-05T08:30:30.008Z,27.42
2022-08-05T08:33:08.371Z,27.47
2022-08-05T08:35:41.528Z,27.50
2022-08-05T08:38:35.394Z,27.55
2022-08-05T08:41:07.498Z,27.61
2022-08-05T08:45:22.070Z,27.67
2022-08-05T08:46:27.265Z,27.73
2022-08-05T08:49:04.137Z,27.76
2022-08-05T08:52:03.098Z,27.82
2022-08-05T08:54:28.154Z,27.88
2022-08-05T08:56:56.596Z,27.89
2022-08-05T08:59:27.686Z,27.92
2022-08-05T09:02:08.492Z,27.97
2022-08-05T09:04:37.350Z,28.05
2022-08-05T09:07:28.770Z,28.11
2022-08-05T09:10:08.418Z,28.17
2022-08-05T09:12:37.817Z,28.20
2022-08-05T09:15:07.462Z,28.20
2022-08-05T09:17:40.639Z,28.25
2022-08-05T09:20:12.158Z,28.37
2022-08-05T09:23:05.449Z,28.46
2022-08-05T09:26:02.518Z,28.54
2022-08-05T09:28:31.615Z,28.59
2022-08-05T09:31:43.710Z,28.65
2022-08-05T09:33:54.048Z,28.66
2022-08-05T09:36:21.953Z,28.67
2022-08-05T09:39:00.082Z,28.73
2022-08-05T09:41:32.766Z,28.74
2022-08-05T09:44:06.138Z,28.71
2022-08-05T09:46:35.054Z,28.67
2022-08-05T09:49:18.575Z,28.76
2022-08-05T09:51:48.846Z,28.85
2022-08-05T09:54:29.627Z,28.90
2022-08-05T09:57:01.354Z,28.94
2022-08-05T09:59:29.681Z,29.05
2022-08-05T10:02:02.981Z,29.09
2022-08-05T10:04:39.500Z,29.16
2022-08-05T10:07:19.659Z,29.14
2022-08-05T10:10:14.662Z,29.09
2022-08-05T10:12:49.834Z,29.06
2022-08-05T10:15:23.478Z,29.10
2022-08-05T10:18:12.539Z,29.19
2022-08-05T10:20:43.095Z,29.29
2022-08-05T10:23:34.252Z,29.31
2022-08-05T10:26:04.997Z,29.37
2022-08-05T10:28:36.552Z,29.36
2022-08-05T10:32:48.095Z,29.34
2022-08-05T10:33:54.711Z,29.43
2022-08-05T10:36:23.759Z,29.55
2022-08-05T10:39:00.397Z,29.66
2022-08-05T10:41:44.863Z,29.79
2022-08-05T10:44:18.738Z,29.93
2022-08-05T10:46:50.875Z,30.05
2022-08-05T10:49:26.789Z,30.15
2022-08-05T10:52:02.513Z,30.25
2022-08-05T10:55:04.923Z,30.23
2022-08-05T10:57:34.250Z,30.27
2022-08-05T11:00:18.635Z,30.28
2022-08-05T11:03:23.573Z,30.35
2022-08-05T11:06:15.812Z,30.43
2022-08-05T11:09:31.960Z,30.51
2022-08-05T11:12:43.709Z,30.54
2022-08-05T11:15:59.338Z,30.65
2022-08-05T11:18:29.953Z,30.78
2022-08-05T11:20:57.795Z,30.77
2022-08-05T11:23:33.626Z,30.86
2022-08-05T11:26:28.360Z,30.94
2022-08-05T11:29:12.271Z,31.01
2022-08-05T11:31:57.877Z,31.05
2022-08-05T11:34:39.969Z,31.06
2022-08-05T11:38:37.400Z,31.04
2022-08-05T11:41:13.956Z,31.18
2022-08-05T11:44:07.307Z,31.14
2022-08-05T11:46:38.035Z,31.12
2022-08-05T11:49:25.611Z,31.24
2022-08-05T11:51:53.685Z,31.25
2022-08-05T11:54:33.971Z,31.23
2022-08-05T11:57:08.643Z,31.25
2022-08-05T11:59:52.715Z,31.33
2022-08-05T12:02:31.976Z,31.41
2022-08-05T12:05:07.405Z,31.47
2022-08-05T12:08:08.963Z,31.50
2022-08-05T12:10:43.602Z,31.64
2022-08-05T12:13:17.262Z,31.74
2022-08-05T12:15:49.998Z,31.89
2022-08-05T12:18:19.080Z,32.06
2022-08-05T12:20:48.799Z,32.14
2022-08-05T12:23:17.000Z,32.17
2022-08-05T12:25:53.371Z,32.23
2022-08-05T12:28:35.166Z,32.22
2022-08-05T12:31:05.306Z,32.31
2022-08-05T12:33:36.729Z,32.39
2022-08-05T12:36:09.300Z,32.45
2022-08-05T12:38:39.690Z,32.58
2022-08-05T12:41:13.970Z,32.75
2022-08-05T12:43:56.053Z,32.89
2022-08-05T12:46:29.037Z,33.00
2022-08-05T12:49:13.024Z,33.06
2022-08-05T12:52:12.789Z,33.04
2022-08-05T12:54:35.903Z,33.07
2022-08-05T12:57:10.243Z,33.05
2022-08-05T13:01:56.868Z,33.05
2022-08-05T13:02:37.310Z,33.16
2022-08-05T13:05:11.093Z,33.23
2022-08-05T13:08:00.162Z,33.27
2022-08-05T13:10:33.701Z,33.31
2022-08-05T13:13:06.556Z,33.33
2022-08-05T13:15:50.299Z,33.50
2022-08-05T13:18:20.198Z,33.57
2022-08-05T13:20:49.316Z,33.73
2022-08-05T13:23:22.417Z,33.95
2022-08-05T13:25:52.412Z,33.96
2022-08-05T13:28:27.521Z,34.05
2022-08-05T13:30:55.049Z,34.22
2022-08-05T13:34:23.189Z,34.24
2022-08-05T13:36:14.510Z,34.17
2022-08-05T13:38:43.237Z,34.18
2022-08-05T13:41:13.524Z,34.30
2022-08-05T13:43:55.195Z,34.39
2022-08-05T13:46:37.989Z,34.49
2022-08-05T13:49:12.195Z,34.65
2022-08-05T13:51:46.220Z,34.72
2022-08-05T13:54:16.068Z,34.91
2022-08-05T13:56:45.163Z,34.98
2022-08-05T13:59:21.370Z,34.97
2022-08-05T14:01:58.242Z,34.98
2022-08-05T14:04:50.021Z,35.12
2022-08-05T14:07:26.362Z,35.32
2022-08-05T14:10:12.386Z,35.44
2022-08-05T14:12:43.001Z,35.53
2022-08-05T14:16:07.938Z,35.60
2022-08-05T14:18:05.479Z,35.71
2022-08-05T14:20:34.035Z,35.92
2022-08-05T14:23:01.613Z,36.15
2022-08-05T14:25:30.430Z,36.28
2022-08-05T14:27:58.408Z,36.43
2022-08-05T14:30:27.860Z,36.71
2022-08-05T14:32:56.738Z,36.96
2022-08-05T14:35:36.956Z,37.15
2022-08-05T14:38:32.405Z,37.48
2022-08-05T14:41:01.501Z,37.88
2022-08-05T14:43:57.516Z,38.21
2022-08-05T14:46:23.047Z,38.58
2022-08-05T14:48:57.003Z,39.02
2022-08-05T14:51:25.154Z,39.49
2022-08-05T14:54:00.570Z,39.94
2022-08-05T14:56:46.941Z,40.33
2022-08-05T14:59:15.186Z,40.72
2022-08-05T15:01:48.115Z,41.08
2022-08-05T15:04:17.323Z,41.45
2022-08-05T15:06:49.458Z,41.82
2022-08-05T15:09:50.566Z,42.21
2022-08-05T15:12:06.954Z,42.65
2022-08-05T15:14:48.292Z,43.06
2022-08-05T15:17:46.222Z,43.58
2022-08-05T15:20:18.605Z,44.09
2022-08-05T15:22:54.004Z,44.62
2022-08-05T15:25:23.592Z,45.05
2022-08-05T15:28:14.566Z,45.51
2022-08-05T15:30:43.751Z,45.96
2022-08-05T15:34:04.375Z,46.30
2022-08-05T15:36:03.622Z,46.81
2022-08-05T15:38:34.062Z,47.19
2022-08-05T15:41:22.672Z,47.50
2022-08-05T15:43:54.569Z,47.64
2022-08-05T15:46:23.998Z,46.64
2022-08-05T15:49:00.802Z,45.18
2022-08-05T15:52:04.479Z,43.98
2022-08-05T15:54:17.709Z,42.77
2022-08-05T15:56:45.300Z,41.85
2022-08-05T15:59:21.617Z,41.08
2022-08-05T16:01:53.323Z,40.42
2022-08-05T16:04:25.489Z,39.83
2022-08-05T16:06:55.587Z,39.36
2022-08-05T16:09:24.477Z,38.91
2022-08-05T16:11:53.776Z,38.46
2022-08-05T16:14:21.852Z,38.05
2022-08-05T16:16:50.268Z,37.65
2022-08-05T16:19:19.169Z,37.21
2022-08-05T16:22:06.908Z,36.83
2022-08-05T16:24:41.567Z,36.53
2022-08-05T16:27:18.721Z,36.25
2022-08-05T16:29:50.350Z,35.91
2022-08-05T16:32:28.282Z,35.61
2022-08-05T16:34:57.410Z,35.46
2022-08-05T16:38:15.677Z,35.32
2022-08-05T16:40:26.643Z,35.12
2022-08-05T16:42:57.231Z,34.95
2022-08-05T16:46:04.941Z,34.87
2022-08-05T16:48:25.264Z,34.70
2022-08-05T16:50:54.294Z,34.56
2022-08-05T16:53:31.821Z,34.41
2022-08-05T16:56:00.451Z,34.20
2022-08-05T16:58:28.060Z,34.06
2022-08-05T17:00:55.613Z,33.93
2022-08-05T17:03:23.184Z,33.83
2022-08-05T17:05:54.026Z,33.73
2022-08-05T17:08:36.473Z,33.62
2022-08-05T17:11:17.164Z,33.44
2022-08-05T17:13:45.378Z,33.30
2022-08-05T17:16:32.656Z,33.17
2022-08-05T17:19:00.892Z,33.02
2022-08-05T17:21:36.151Z,32.91
2022-08-05T17:24:19.368Z,32.84
2022-08-05T17:26:51.758Z,32.74
2022-08-05T17:29:22.508Z,32.58
2022-08-05T17:32:00.519Z,32.45
2022-08-05T17:34:29.568Z,32.33
2022-08-05T17:36:59.603Z,32.21
2022-08-05T17:39:33.218Z,32.08
2022-08-05T17:42:28.553Z,31.92
2022-08-05T17:44:51.057Z,31.79
2022-08-05T17:47:22.248Z,31.67
2022-08-05T17:50:00.350Z,31.55
2022-08-05T17:52:32.456Z,31.44
2022-08-05T17:55:02.968Z,31.33
2022-08-05T17:57:30.813Z,31.23
2022-08-05T18:00:03.611Z,31.14
2022-08-05T18:02:33.347Z,31.05
2022-08-05T18:05:02.793Z,30.97
2022-08-05T18:07:41.543Z,30.83
2022-08-05T18:10:10.977Z,30.66
2022-08-05T18:12:39.345Z,30.52
2022-08-05T18:15:09.158Z,30.36
2022-08-05T18:17:59.600Z,30.18
2022-08-05T18:20:29.279Z,30.04
2022-08-05T18:23:12.025Z,29.93
2022-08-05T18:25:44.757Z,29.85
2022-08-05T18:28:16.643Z,29.78
2022-08-05T18:30:45.497Z,29.73
2022-08-05T18:33:18.431Z,29.70
2022-08-05T18:36:03.376Z,29.64
2022-08-05T18:38:35.016Z,29.60
2022-08-05T18:41:56.091Z,29.56
2022-08-05T18:43:51.578Z,29.50
2022-08-05T18:46:19.834Z,29.47
2022-08-05T18:48:51.973Z,29.45
2022-08-05T18:52:05.669Z,29.41
2022-08-05T18:54:28.348Z,29.38
2022-08-05T18:57:01.091Z,29.36
2022-08-05T18:59:43.382Z,29.32
2022-08-05T19:02:27.769Z,29.24
2022-08-05T19:05:02.395Z,29.16
2022-08-05T19:07:47.407Z,29.07
2022-08-05T19:10:18.787Z,28.99
2022-08-05T19:12:54.554Z,28.93
2022-08-05T19:15:57.844Z,28.85
2022-08-05T19:18:20.981Z,28.78
2022-08-05T19:20:51.426Z,28.70
2022-08-05T19:24:03.292Z,28.62
2022-08-05T19:26:09.159Z,28.53
2022-08-05T19:28:41.553Z,28.44
2022-08-05T19:31:13.466Z,28.37
2022-08-05T19:33:48.446Z,28.28
2022-08-05T19:36:29.533Z,28.24
2022-08-05T19:39:09.870Z,28.19
2022-08-05T19:42:07.170Z,28.09
2022-08-05T19:44:29.239Z,27.99
2022-08-05T19:46:57.914Z,27.93
2022-08-05T19:49:25.654Z,27.90
2022-08-05T19:52:09.179Z,27.83
2022-08-05T19:54:44.800Z,27.73
2022-08-05T19:57:13.120Z,27.70
2022-08-05T20:00:00.784Z,27.66
2022-08-05T20:02:31.974Z,27.53
2022-08-05T20:05:00.189Z,27.41
2022-08-05T20:07:46.931Z,27.30
2022-08-05T20:10:19.366Z,27.20
2022-08-05T20:12:50.472Z,27.10
2022-08-05T20:15:48.589Z,27.00
2022-08-05T20:18:32.735Z,26.90
2022-08-05T20:20:59.991Z,26.81
2022-08-05T20:23:40.147Z,26.77
2022-08-05T20:26:20.660Z,26.72
2022-08-05T20:28:52.701Z,26.66
2022-08-05T20:31:28.804Z,26.60
2022-08-05T20:34:12.875Z,26.56
2022-08-05T20:36:43.284Z,26.52
2022-08-05T20:39:12.897Z,26.48
2022-08-05T20:41:43.971Z,26.41
2022-08-05T20:44:29.922Z,26.40
2022-08-05T20:47:03.281Z,26.37
2022-08-05T20:49:37.798Z,26.30
2022-08-05T20:52:08.061Z,26.23
2022-08-05T20:54:58.943Z,26.16
2022-08-05T20:57:24.870Z,26.10
2022-08-05T21:00:35.098Z,26.04
2022-08-05T21:03:06.182Z,25.98
2022-08-05T21:05:47.436Z,25.98
2022-08-05T21:08:20.904Z,25.98
2022-08-05T21:10:55.325Z,25.95
2022-08-05T21:13:56.489Z,25.93
2022-08-05T21:16:14.885Z,25.94
2022-08-05T21:18:45.230Z,25.92
2022-08-05T21:21:12.988Z,25.93
2022-08-05T21:23:41.122Z,25.96
2022-08-05T21:26:14.410Z,25.98
2022-08-05T21:28:50.528Z,25.98
2022-08-05T21:31:19.007Z,25.97
2022-08-05T21:33:47.687Z,25.91
2022-08-05T21:36:27.717Z,25.84
2022-08-05T21:38:58.475Z,25.75
2022-08-05T21:41:32.968Z,25.65
2022-08-05T21:44:04.227Z,25.56
2022-08-05T21:46:32.404Z,25.51
2022-08-05T21:49:04.604Z,25.47
2022-08-05T21:52:22.618Z,25.44
2022-08-05T21:54:27.797Z,25.35
2022-08-05T21:57:29.602Z,25.23
2022-08-05T22:00:05.969Z,25.14
2022-08-05T22:02:35.335Z,25.01
2022-08-05T22:05:04.428Z,24.76
2022-08-05T22:07:40.200Z,24.44
2022-08-05T22:10:27.029Z,24.17
2022-08-05T22:12:57.207Z,24.05
2022-08-05T22:16:01.563Z,24.01
2022-08-05T22:18:15.420Z,23.94
2022-08-05T22:20:46.655Z,23.90
2022-08-05T22:24:01.900Z,23.91
2022-08-05T22:26:49.515Z,23.94
2022-08-05T22:29:26.470Z,23.96
2022-08-05T22:32:02.913Z,23.94
2022-08-05T22:34:32.485Z,23.92
2022-08-05T22:37:03.907Z,23.97
2022-08-05T22:39:34.446Z,24.01
2022-08-05T22:42:10.076Z,24.06
2022-08-05T22:44:40.299Z,24.08
2022-08-05T22:47:11.229Z,24.01
2022-08-05T22:50:19.055Z,23.86
2022-08-05T22:52:32.303Z,23.74
2022-08-05T22:55:02.279Z,23.64
2022-08-05T22:57:36.373Z,23.55
2022-08-05T23:00:07.702Z,23.48
2022-08-05T23:02:40.053Z,23.37
2022-08-05T23:05:15.058Z,23.28
2022-08-05T23:07:48.204Z,23.24
2022-08-05T23:10:20.167Z,23.20
2022-08-05T23:12:51.490Z,23.15
2022-08-05T23:15:27.147Z,23.15
2022-08-05T23:18:00.850Z,23.18
2022-08-05T23:20:32.602Z,23.19
2022-08-05T23:23:03.365Z,23.25
2022-08-05T23:25:53.203Z,23.31
2022-08-05T23:28:29.227Z,23.37
2022-08-05T23:31:16.524Z,23.40
2022-08-05T23:34:04.477Z,23.43
2022-08-05T23:36:38.755Z,23.44
2022-08-05T23:39:10.022Z,23.43
2022-08-05T23:41:48.450Z,23.45
2022-08-05T23:44:17.511Z,23.47
2022-08-05T23:46:49.262Z,23.48
2022-08-05T23:49:23.676Z,23.48
2022-08-05T23:52:19.688Z,23.47
2022-08-05T23:54:50.370Z,23.46
2022-08-05T23:57:19.965Z,23.43
